Airfield :
LOGIN :

Register | Disclaimer

   EN    FR    IT 

 










Legend :    VFR   Marginal VFR   IFR   Intensive IFR   Very Intensive IFR
Visi :
Ceiling :
>= 8 km
>= 3000ft
5 to 8 km
1000 to 3000 ft
1500m to 5 km
500 to 1000 ft
800 to 1500m
200 to 500 ft
< 800m
< 200 ft
Symbols :   Thunderstorms  Fog  Heavy snow  Heavy precipitations  Wind > 20 kt
SIGMETs :     Misc.  Thunderstorms  Icing  Turbulence  Mountain Waves  Volcanic Ashes






- Airport Elevation : 117 ft
- IATA code : NWI


EGSH - Norwich

CURRENT METAR :
  • 090920Z 25010KT 9999 FEW025 SCT035 06/04 Q1000 NOSIG

EXPIRED METARs :
  • 090850Z 24008KT 9999 FEW010 SCT021 05/04 Q0999 NOSIG
  • 090820Z 22006KT 9999 FEW010 SCT039 04/03 Q0999 NOSIG
  • 090750Z 23006KT 9999 FEW010 SCT025 BKN029 04/03 Q0999 TEMPO BKN010
  • 090720Z 24009KT 9999 SCT010 SCT016 05/04 Q0999 TEMPO BKN010
  • 090650Z 24010KT 9999 -RA SCT010 SCT016 05/04 Q0998 TEMPO BKN010

TAF TAF EGSH
Valid from the 09 at 09:00 until the 09 at 18:00 UTC


090805Z 0909/0918 24010KT 9999 SCT025
TEMPO 0909/0913 BKN010
BECMG 0915/0918 18008KT
ATIS : +44 1603 420 640



MET'MAP, your aeronautical weather chart ! - Copyright ORBIFLY December 2007 - Disclaimer

ORBIFLY MET'MAP TEAM :

Programming & Development : Alexandra Zaïnal
Concept & original design : Baudouin d'Aumeries
Assistance for programming : Marc-Olivier Méhu
Technical & hardware support : Manuel Goepfert

Contact : metmap@orbifly.com




SOURCES & CREDITS :

   NOAA